createdAt,value
2019-05-06T00:02:17.953Z,81.70
2019-05-06T00:04:46.425Z,81.60
2019-05-06T00:07:14.898Z,81.50
2019-05-06T00:09:44.175Z,81.60
2019-05-06T00:12:14.477Z,81.60
2019-05-06T00:14:43.624Z,81.40
2019-05-06T00:17:14.438Z,81.50
2019-05-06T00:19:44.636Z,81.50
2019-05-06T00:22:14.233Z,81.10
2019-05-06T00:24:47.406Z,81.40
2019-05-06T00:27:20.551Z,81.60
2019-05-06T00:29:49.023Z,81.80
2019-05-06T00:32:17.521Z,81.90
2019-05-06T00:34:45.968Z,82.00
2019-05-06T00:37:14.670Z,81.90
2019-05-06T00:39:47.875Z,81.90
2019-05-06T00:42:34.390Z,81.80
2019-05-06T00:45:04.272Z,81.70
2019-05-06T00:47:34.030Z,81.80
2019-05-06T00:50:04.260Z,82.10
2019-05-06T00:52:33.947Z,82.20
2019-05-06T00:55:04.122Z,82.30
2019-05-06T00:57:44.620Z,82.60
2019-05-06T01:00:18.115Z,82.70
2019-05-06T01:02:46.684Z,82.80
2019-05-06T01:05:15.773Z,82.90
2019-05-06T01:07:44.366Z,82.80
2019-05-06T01:10:14.513Z,82.90
2019-05-06T01:12:44.861Z,82.90
2019-05-06T01:15:16.813Z,83.10
2019-05-06T01:17:45.357Z,83.30
2019-05-06T01:20:14.937Z,83.50
2019-05-06T01:22:43.755Z,83.70
2019-05-06T01:25:14.205Z,84.30
2019-05-06T01:27:44.397Z,84.00
2019-05-06T01:30:13.867Z,83.90
2019-05-06T01:32:43.590Z,83.90
2019-05-06T01:35:14.098Z,83.50
2019-05-06T01:37:44.534Z,83.90
2019-05-06T01:40:34.581Z,83.80
2019-05-06T01:43:14.531Z,84.40
2019-05-06T01:45:43.915Z,84.20
2019-05-06T01:48:14.316Z,84.00
2019-05-06T01:50:44.515Z,84.00
2019-05-06T01:53:14.029Z,84.10
2019-05-06T01:55:43.746Z,84.30
2019-05-06T01:58:14.516Z,84.00
2019-05-06T02:00:43.724Z,84.30
2019-05-06T02:03:12.261Z,84.40
2019-05-06T02:05:40.699Z,84.70
2019-05-06T02:08:09.172Z,84.50
2019-05-06T02:10:38.238Z,85.10
2019-05-06T02:13:06.715Z,83.80
2019-05-06T02:15:35.163Z,83.70
2019-05-06T02:18:04.124Z,83.10
2019-05-06T02:20:34.116Z,82.90
2019-05-06T02:23:04.475Z,83.10
2019-05-06T02:25:34.562Z,82.20
2019-05-06T02:28:03.985Z,82.50
2019-05-06T02:30:50.422Z,82.50
2019-05-06T02:33:26.480Z,82.70
2019-05-06T02:35:56.566Z,83.00
2019-05-06T02:38:39.273Z,83.60
2019-05-06T02:40:59.751Z,83.90
2019-05-06T02:43:28.194Z,84.10
2019-05-06T02:45:57.718Z,84.00
2019-05-06T02:48:27.798Z,84.20
2019-05-06T02:50:57.888Z,84.60
2019-05-06T02:53:26.916Z,84.70
2019-05-06T02:55:55.829Z,84.80
2019-05-06T02:58:24.274Z,85.20
2019-05-06T03:00:53.882Z,85.20
2019-05-06T03:03:23.360Z,85.70
2019-05-06T03:05:53.262Z,85.90
2019-05-06T03:08:23.750Z,85.90
2019-05-06T03:10:53.462Z,86.00
2019-05-06T03:13:23.612Z,86.40
2019-05-06T03:15:54.064Z,86.40
2019-05-06T03:18:23.639Z,86.40
2019-05-06T03:20:56.826Z,86.50
2019-05-06T03:23:27.060Z,86.50
2019-05-06T03:25:55.587Z,86.30
2019-05-06T03:28:24.096Z,86.20
2019-05-06T03:30:56.370Z,86.30
2019-05-06T03:33:47.811Z,86.80
2019-05-06T03:36:06.254Z,86.50
2019-05-06T03:38:23.173Z,86.40
2019-05-06T03:40:53.811Z,86.60
2019-05-06T03:43:23.287Z,85.80
2019-05-06T03:46:04.196Z,85.60
2019-05-06T03:48:34.732Z,85.60
2019-05-06T03:51:04.183Z,84.70
2019-05-06T03:53:34.391Z,84.50
2019-05-06T03:56:03.574Z,84.00
2019-05-06T03:58:35.281Z,83.80
2019-05-06T04:01:03.996Z,82.70
2019-05-06T04:03:43.882Z,82.50
2019-05-06T04:06:04.700Z,82.40
2019-05-06T04:08:34.336Z,81.60
2019-05-06T04:11:13.610Z,81.30
2019-05-06T04:13:43.671Z,80.90
2019-05-06T04:16:14.574Z,81.00
2019-05-06T04:18:44.738Z,80.60
2019-05-06T04:21:16.756Z,80.70
2019-05-06T04:23:47.070Z,80.20
2019-05-06T04:26:33.479Z,80.40
2019-05-06T04:29:03.931Z,79.90
2019-05-06T04:31:33.587Z,79.20
2019-05-06T04:34:12.846Z,79.20
2019-05-06T04:36:33.686Z,79.00
2019-05-06T04:39:04.184Z,78.50
2019-05-06T04:41:34.122Z,78.60
2019-05-06T04:44:03.101Z,78.50
2019-05-06T04:46:34.833Z,78.30
2019-05-06T04:49:03.983Z,77.60
2019-05-06T04:51:37.004Z,78.20
2019-05-06T04:54:04.489Z,78.30
2019-05-06T04:56:34.322Z,78.00
2019-05-06T04:59:06.363Z,77.60
2019-05-06T05:01:34.087Z,74.70
2019-05-06T05:04:03.701Z,70.10
2019-05-06T05:06:32.993Z,67.90
2019-05-06T05:09:02.872Z,67.10
2019-05-06T05:11:48.483Z,67.00
2019-05-06T05:14:22.859Z,68.50
2019-05-06T05:16:52.730Z,69.90
2019-05-06T05:19:22.920Z,71.00
2019-05-06T05:21:52.532Z,71.10
2019-05-06T05:24:23.322Z,70.40
2019-05-06T05:26:52.298Z,68.70
2019-05-06T05:29:22.777Z,65.10
2019-05-06T05:31:53.032Z,60.40
2019-05-06T05:34:22.468Z,57.00
2019-05-06T05:36:52.075Z,54.40
2019-05-06T05:39:22.256Z,52.00
2019-05-06T05:41:52.174Z,49.20
2019-05-06T05:44:22.808Z,47.40
2019-05-06T05:46:52.320Z,48.50
2019-05-06T05:49:25.464Z,50.40
2019-05-06T05:51:54.081Z,53.30
2019-05-06T05:54:23.142Z,57.70
2019-05-06T05:56:52.941Z,62.30
2019-05-06T05:59:23.163Z,66.00
2019-05-06T06:01:52.943Z,68.10
2019-05-06T06:04:22.628Z,69.50
2019-05-06T06:06:51.973Z,69.80
2019-05-06T06:09:22.431Z,69.20
2019-05-06T06:11:53.672Z,69.50
2019-05-06T06:14:43.797Z,64.70
2019-05-06T06:17:26.086Z,62.10
2019-05-06T06:19:56.376Z,62.80
2019-05-06T06:22:26.527Z,64.00
2019-05-06T06:24:55.072Z,64.60
2019-05-06T06:27:23.505Z,66.70
2019-05-06T06:29:52.715Z,67.70
2019-05-06T06:32:23.500Z,68.10
2019-05-06T06:35:07.488Z,70.80
2019-05-06T06:37:28.478Z,70.90
2019-05-06T06:39:57.732Z,71.10
2019-05-06T06:42:26.326Z,70.80
2019-05-06T06:44:54.747Z,71.30
2019-05-06T06:47:23.374Z,70.30
2019-05-06T06:49:53.451Z,66.60
2019-05-06T06:52:23.134Z,65.20
2019-05-06T06:54:52.636Z,62.70
2019-05-06T06:57:35.600Z,60.20
2019-05-06T07:00:07.131Z,58.50
2019-05-06T07:02:43.245Z,55.70
2019-05-06T07:05:25.443Z,52.40
2019-05-06T07:07:47.761Z,48.40
2019-05-06T07:10:34.684Z,45.10
2019-05-06T07:13:03.264Z,44.50
2019-05-06T07:15:33.594Z,42.20
2019-05-06T07:18:02.501Z,45.50
2019-05-06T07:20:32.721Z,46.90
2019-05-06T07:23:02.812Z,49.30
2019-05-06T07:25:33.556Z,51.90
2019-05-06T07:28:02.934Z,55.10
2019-05-06T07:30:33.422Z,56.20
2019-05-06T07:33:03.630Z,58.40
2019-05-06T07:35:40.474Z,59.40
2019-05-06T07:38:02.530Z,62.80
2019-05-06T07:40:32.674Z,64.30
2019-05-06T07:43:03.015Z,65.20
2019-05-06T07:45:36.212Z,67.00
2019-05-06T07:48:06.583Z,67.60
2019-05-06T07:50:36.225Z,65.60
2019-05-06T07:53:08.152Z,63.30
2019-05-06T07:55:37.602Z,61.40
2019-05-06T07:58:06.735Z,60.80
2019-05-06T08:00:35.515Z,58.80
2019-05-06T08:03:04.403Z,55.20
2019-05-06T08:05:32.981Z,51.10
2019-05-06T08:08:03.546Z,46.30
2019-05-06T08:10:33.247Z,43.30
2019-05-06T08:13:02.767Z,40.00
2019-05-06T08:15:32.581Z,37.20
2019-05-06T08:18:03.326Z,34.60
2019-05-06T08:20:37.541Z,33.90
2019-05-06T08:23:12.578Z,35.30
2019-05-06T08:25:45.543Z,36.90
2019-05-06T08:28:14.066Z,37.50
2019-05-06T08:30:43.096Z,39.10
2019-05-06T08:33:12.902Z,39.00
2019-05-06T08:35:42.565Z,40.50
2019-05-06T08:38:12.204Z,43.40
2019-05-06T08:40:43.118Z,44.80
2019-05-06T08:43:13.108Z,49.70
2019-05-06T08:45:42.081Z,54.80
2019-05-06T08:48:12.826Z,57.80
2019-05-06T08:50:42.576Z,59.10
2019-05-06T08:53:18.553Z,61.60
2019-05-06T08:55:48.835Z,63.10
2019-05-06T08:58:17.273Z,59.40
2019-05-06T09:00:50.112Z,55.40
2019-05-06T09:03:18.638Z,53.00
2019-05-06T09:05:53.209Z,51.20
2019-05-06T09:08:23.243Z,48.60
2019-05-06T09:10:52.414Z,46.10
2019-05-06T09:13:23.021Z,43.30
2019-05-06T09:15:52.471Z,42.20
2019-05-06T09:18:21.155Z,37.80
2019-05-06T09:20:49.624Z,35.80
2019-05-06T09:23:18.064Z,35.20
2019-05-06T09:25:46.506Z,37.50
2019-05-06T09:28:25.635Z,36.70
2019-05-06T09:30:55.808Z,37.00
2019-05-06T09:33:25.886Z,39.10
2019-05-06T09:35:54.364Z,41.20
2019-05-06T09:38:22.908Z,41.30
2019-05-06T09:40:52.544Z,41.80
2019-05-06T09:43:22.268Z,43.30
2019-05-06T09:45:52.818Z,45.10
2019-05-06T09:48:25.391Z,51.60
2019-05-06T09:50:53.943Z,55.50
2019-05-06T09:53:29.964Z,60.10
2019-05-06T09:56:16.679Z,60.40
2019-05-06T09:58:45.120Z,58.10
2019-05-06T10:01:14.318Z,53.50
2019-05-06T10:03:42.899Z,51.10
2019-05-06T10:06:13.109Z,47.10
2019-05-06T10:08:41.731Z,44.40
2019-05-06T10:11:10.189Z,43.30
2019-05-06T10:13:38.638Z,41.60
2019-05-06T10:16:07.087Z,39.90
2019-05-06T10:18:35.599Z,39.30
2019-05-06T10:21:04.328Z,37.50
2019-05-06T10:23:32.881Z,35.70
2019-05-06T10:26:04.654Z,38.70
2019-05-06T10:28:33.721Z,41.50
2019-05-06T10:31:04.154Z,42.50
2019-05-06T10:33:33.631Z,45.40
2019-05-06T10:36:03.452Z,44.20
2019-05-06T10:38:53.025Z,42.40
2019-05-06T10:41:24.611Z,42.00
2019-05-06T10:43:58.867Z,41.80
2019-05-06T10:46:27.331Z,45.70
2019-05-06T10:48:55.779Z,47.00
2019-05-06T10:51:42.734Z,50.90
2019-05-06T10:54:12.288Z,52.40
2019-05-06T10:56:50.698Z,53.30
2019-05-06T10:59:14.364Z,56.80
2019-05-06T11:01:44.451Z,57.30
2019-05-06T11:04:12.891Z,56.30
2019-05-06T11:06:43.033Z,56.10
2019-05-06T11:09:13.569Z,55.20
2019-05-06T11:11:42.768Z,52.30
2019-05-06T11:14:12.645Z,47.20
2019-05-06T11:16:41.518Z,43.80
2019-05-06T11:19:09.971Z,43.30
2019-05-06T11:21:38.411Z,43.60
2019-05-06T11:24:06.930Z,48.10
2019-05-06T11:26:35.388Z,52.30
2019-05-06T11:29:08.305Z,54.10
2019-05-06T11:31:43.241Z,51.20
2019-05-06T11:34:27.975Z,49.40
2019-05-06T11:37:04.076Z,47.40
2019-05-06T11:39:32.536Z,46.00
2019-05-06T11:42:23.479Z,42.90
2019-05-06T11:44:32.333Z,42.40
2019-05-06T11:47:03.224Z,42.30
2019-05-06T11:49:32.656Z,44.50
2019-05-06T11:52:02.385Z,44.30
2019-05-06T11:54:33.580Z,44.90
2019-05-06T11:57:02.968Z,45.80
2019-05-06T11:59:31.553Z,42.70
2019-05-06T12:02:07.828Z,44.20
2019-05-06T12:04:36.279Z,44.40
2019-05-06T12:07:11.393Z,45.20
2019-05-06T12:09:35.075Z,44.60
2019-05-06T12:12:03.584Z,43.00
2019-05-06T12:14:32.053Z,42.30
2019-05-06T12:17:02.240Z,43.50
2019-05-06T12:19:32.417Z,44.70
2019-05-06T12:22:01.076Z,44.10
2019-05-06T12:24:29.555Z,44.80
2019-05-06T12:26:58.021Z,44.10
2019-05-06T12:29:26.464Z,44.70
2019-05-06T12:32:08.767Z,42.90
2019-05-06T12:34:37.220Z,42.60
2019-05-06T12:37:07.393Z,43.30
2019-05-06T12:39:35.842Z,41.80
2019-05-06T12:42:05.933Z,38.30
2019-05-06T12:44:36.112Z,36.10
2019-05-06T12:47:13.491Z,37.70
2019-05-06T12:49:42.634Z,36.80
2019-05-06T12:52:12.362Z,36.90
2019-05-06T12:54:42.955Z,36.70
2019-05-06T12:57:12.610Z,36.10
2019-05-06T12:59:42.630Z,36.40
2019-05-06T13:02:13.190Z,36.00
2019-05-06T13:04:51.681Z,35.90
2019-05-06T13:07:13.542Z,36.20
2019-05-06T13:09:43.276Z,36.50
2019-05-06T13:12:13.817Z,38.10
2019-05-06T13:14:43.121Z,39.20
2019-05-06T13:17:13.344Z,40.50
2019-05-06T13:19:42.861Z,41.50
2019-05-06T13:22:13.520Z,41.70
2019-05-06T13:24:42.075Z,40.90
2019-05-06T13:27:12.661Z,40.30
2019-05-06T13:29:42.874Z,39.70
2019-05-06T13:32:13.029Z,38.70
2019-05-06T13:34:42.438Z,38.00
2019-05-06T13:37:12.859Z,37.80
2019-05-06T13:39:43.661Z,36.20
2019-05-06T13:42:13.441Z,35.50
2019-05-06T13:44:42.587Z,35.60
2019-05-06T13:47:12.815Z,36.60
2019-05-06T13:49:45.844Z,36.20
2019-05-06T13:52:14.294Z,36.00
2019-05-06T13:54:42.802Z,37.10
2019-05-06T13:57:12.535Z,36.00
2019-05-06T13:59:43.659Z,36.40
2019-05-06T14:02:18.931Z,35.60
2019-05-06T14:04:47.443Z,34.40
2019-05-06T14:07:15.960Z,35.00
2019-05-06T14:09:44.397Z,34.80
2019-05-06T14:12:12.856Z,34.40
2019-05-06T14:14:43.231Z,34.30
2019-05-06T14:17:12.757Z,33.40
2019-05-06T14:19:42.929Z,35.20
2019-05-06T14:22:12.511Z,35.40
2019-05-06T14:24:43.228Z,35.80
2019-05-06T14:27:12.524Z,36.70
2019-05-06T14:29:48.843Z,35.70
2019-05-06T14:32:17.298Z,34.60
2019-05-06T14:34:45.757Z,34.10
2019-05-06T14:37:14.298Z,32.60
2019-05-06T14:39:52.636Z,32.90
2019-05-06T14:42:14.628Z,33.30
2019-05-06T14:44:43.418Z,33.70
2019-05-06T14:47:23.320Z,33.80
2019-05-06T14:49:52.963Z,34.50
2019-05-06T14:52:22.667Z,35.20
2019-05-06T14:54:55.664Z,36.20
2019-05-06T14:57:25.109Z,37.30
2019-05-06T14:59:55.549Z,38.70
2019-05-06T15:02:26.843Z,37.70
2019-05-06T15:04:55.732Z,37.50
2019-05-06T15:07:24.168Z,38.10
2019-05-06T15:10:02.576Z,37.30
2019-05-06T15:12:23.347Z,38.10
2019-05-06T15:14:52.777Z,38.50
2019-05-06T15:17:22.973Z,38.40
2019-05-06T15:19:52.588Z,38.90
2019-05-06T15:22:22.532Z,39.70
2019-05-06T15:24:53.538Z,39.40
2019-05-06T15:27:22.763Z,39.90
2019-05-06T15:29:54.596Z,40.40
2019-05-06T15:32:39.027Z,40.50
2019-05-06T15:35:22.839Z,39.90
2019-05-06T15:37:55.618Z,39.70
2019-05-06T15:40:32.524Z,39.60
2019-05-06T15:42:54.519Z,37.30
2019-05-06T15:45:22.983Z,37.30
2019-05-06T15:47:52.380Z,37.00
2019-05-06T15:50:23.132Z,36.50
2019-05-06T15:52:53.656Z,36.60
2019-05-06T15:55:22.557Z,36.70
2019-05-06T15:57:52.635Z,36.50
2019-05-06T16:00:22.983Z,36.40
2019-05-06T16:02:53.106Z,37.10
2019-05-06T16:05:26.112Z,37.20
2019-05-06T16:07:52.916Z,36.90
2019-05-06T16:10:22.567Z,36.80
2019-05-06T16:12:53.371Z,37.40
2019-05-06T16:15:24.560Z,37.60
2019-05-06T16:17:52.985Z,38.10
2019-05-06T16:20:22.248Z,38.60
2019-05-06T16:22:52.468Z,38.80
2019-05-06T16:25:20.929Z,38.40
2019-05-06T16:27:54.370Z,39.00
2019-05-06T16:30:24.128Z,39.50
2019-05-06T16:32:52.751Z,39.80
2019-05-06T16:35:22.847Z,39.60
2019-05-06T16:37:51.563Z,40.70
2019-05-06T16:40:22.780Z,40.70
2019-05-06T16:42:53.420Z,41.10
2019-05-06T16:45:23.250Z,41.00
2019-05-06T16:47:52.428Z,40.40
2019-05-06T16:50:22.573Z,41.00
2019-05-06T16:52:52.588Z,41.40
2019-05-06T16:55:24.234Z,41.60
2019-05-06T16:57:57.711Z,41.70
2019-05-06T17:00:27.890Z,41.00
2019-05-06T17:03:06.842Z,41.30
2019-05-06T17:05:36.947Z,41.90
2019-05-06T17:08:06.051Z,42.30
2019-05-06T17:10:34.495Z,42.40
2019-05-06T17:13:03.155Z,42.20
2019-05-06T17:15:32.180Z,42.40
2019-05-06T17:18:03.138Z,42.00
2019-05-06T17:20:32.577Z,42.00
2019-05-06T17:23:02.912Z,42.00
2019-05-06T17:25:33.480Z,42.00
2019-05-06T17:28:03.595Z,42.50
2019-05-06T17:30:51.673Z,42.00
2019-05-06T17:33:39.771Z,42.40
2019-05-06T17:36:12.558Z,42.30
2019-05-06T17:38:52.546Z,42.00
2019-05-06T17:41:23.784Z,41.20
2019-05-06T17:43:52.166Z,40.70
2019-05-06T17:46:28.168Z,40.50
2019-05-06T17:49:10.117Z,40.70
2019-05-06T17:51:42.903Z,40.60
2019-05-06T17:54:12.291Z,40.50
2019-05-06T17:56:41.913Z,40.70
2019-05-06T17:59:10.520Z,41.20
2019-05-06T18:01:43.837Z,41.70
2019-05-06T18:04:12.708Z,42.30
2019-05-06T18:06:42.449Z,42.60
2019-05-06T18:09:12.652Z,43.10
2019-05-06T18:11:42.447Z,43.30
2019-05-06T18:14:12.305Z,44.80
2019-05-06T18:16:42.748Z,45.20
2019-05-06T18:19:12.632Z,45.50
2019-05-06T18:21:41.298Z,46.10
2019-05-06T18:24:10.044Z,46.50
2019-05-06T18:26:42.146Z,46.70
2019-05-06T18:29:12.584Z,46.90
2019-05-06T18:31:42.653Z,47.50
2019-05-06T18:34:12.927Z,47.90
2019-05-06T18:36:42.935Z,48.40
2019-05-06T18:39:12.565Z,49.00
2019-05-06T18:41:42.060Z,49.40
2019-05-06T18:44:12.037Z,49.90
2019-05-06T18:46:42.063Z,50.50
2019-05-06T18:49:12.881Z,51.00
2019-05-06T18:51:42.657Z,51.40
2019-05-06T18:54:12.410Z,52.00
2019-05-06T18:56:43.003Z,52.30
2019-05-06T18:59:12.209Z,52.70
2019-05-06T19:01:43.158Z,52.90
2019-05-06T19:04:12.894Z,53.30
2019-05-06T19:06:42.272Z,53.70
2019-05-06T19:09:15.493Z,53.80
2019-05-06T19:11:43.917Z,54.10
2019-05-06T19:14:12.701Z,54.30
2019-05-06T19:16:49.905Z,54.50
2019-05-06T19:19:12.447Z,54.70
2019-05-06T19:21:42.800Z,54.90
2019-05-06T19:24:12.275Z,55.20
2019-05-06T19:26:42.793Z,55.70
2019-05-06T19:29:12.253Z,55.90
2019-05-06T19:31:44.762Z,56.40
2019-05-06T19:34:12.919Z,56.90
2019-05-06T19:36:42.243Z,57.00
2019-05-06T19:39:12.676Z,58.40
2019-05-06T19:41:41.141Z,58.10
2019-05-06T19:44:09.582Z,58.80
2019-05-06T19:46:38.054Z,58.60
2019-05-06T19:49:06.487Z,58.80
2019-05-06T19:51:34.936Z,58.80
2019-05-06T19:54:03.396Z,58.80
2019-05-06T19:56:31.856Z,59.10
2019-05-06T19:59:02.075Z,59.40
2019-05-06T20:01:32.325Z,59.70
2019-05-06T20:04:02.541Z,60.30
2019-05-06T20:06:35.579Z,60.80
2019-05-06T20:09:19.616Z,61.10
2019-05-06T20:11:51.463Z,61.60
2019-05-06T20:14:21.916Z,61.50
2019-05-06T20:16:49.965Z,62.00
2019-05-06T20:19:29.878Z,62.40
2019-05-06T20:21:48.562Z,62.60
2019-05-06T20:24:17.002Z,62.60
2019-05-06T20:26:45.452Z,63.20
2019-05-06T20:29:13.896Z,63.50
2019-05-06T20:31:42.841Z,63.80
2019-05-06T20:34:12.861Z,64.20
2019-05-06T20:36:41.864Z,64.50
2019-05-06T20:39:12.206Z,65.00
2019-05-06T20:41:42.536Z,65.40
2019-05-06T20:44:12.375Z,65.40
2019-05-06T20:46:42.819Z,65.90
2019-05-06T20:49:13.082Z,66.00
2019-05-06T20:51:42.410Z,66.60
2019-05-06T20:54:12.953Z,67.10
2019-05-06T20:56:42.187Z,67.20
2019-05-06T20:59:12.124Z,67.70
2019-05-06T21:01:42.455Z,67.90
2019-05-06T21:04:13.092Z,68.20
2019-05-06T21:06:42.603Z,68.40
2019-05-06T21:09:12.608Z,68.70
2019-05-06T21:11:42.129Z,68.90
2019-05-06T21:14:13.033Z,69.20
2019-05-06T21:16:42.242Z,69.60
2019-05-06T21:19:12.673Z,69.60
2019-05-06T21:21:43.136Z,70.30
2019-05-06T21:24:12.970Z,70.50
2019-05-06T21:26:42.923Z,70.60
2019-05-06T21:29:12.783Z,71.00
2019-05-06T21:31:42.216Z,71.00
2019-05-06T21:34:12.896Z,71.20
2019-05-06T21:36:42.258Z,71.60
2019-05-06T21:39:13.057Z,71.80
2019-05-06T21:41:42.756Z,72.10
2019-05-06T21:44:13.266Z,72.30
2019-05-06T21:46:42.890Z,72.60
2019-05-06T21:49:12.087Z,72.80
2019-05-06T21:51:42.514Z,73.00
2019-05-06T21:54:12.656Z,73.20
2019-05-06T21:56:42.457Z,73.40
2019-05-06T21:59:12.882Z,73.50
2019-05-06T22:01:42.913Z,73.90
2019-05-06T22:04:12.762Z,74.20
2019-05-06T22:06:45.226Z,74.20
2019-05-06T22:09:12.595Z,74.00
2019-05-06T22:11:42.337Z,74.10
2019-05-06T22:14:12.254Z,74.80
2019-05-06T22:16:43.510Z,74.30
2019-05-06T22:19:12.107Z,74.30
2019-05-06T22:21:59.011Z,74.70
2019-05-06T22:24:29.106Z,75.10
2019-05-06T22:26:57.537Z,75.00
2019-05-06T22:29:25.992Z,75.00
2019-05-06T22:31:54.426Z,75.20
2019-05-06T22:34:22.884Z,75.70
2019-05-06T22:36:51.892Z,75.70
2019-05-06T22:39:22.635Z,76.00
2019-05-06T22:41:51.992Z,76.20
2019-05-06T22:44:22.635Z,76.50
2019-05-06T22:46:50.822Z,76.40
2019-05-06T22:49:19.361Z,76.40
2019-05-06T22:51:47.876Z,76.70
2019-05-06T22:54:16.330Z,77.20
2019-05-06T22:56:44.807Z,77.40
2019-05-06T22:59:13.263Z,77.40
2019-05-06T23:01:49.111Z,77.30
2019-05-06T23:04:19.189Z,76.90
2019-05-06T23:06:47.643Z,77.30
2019-05-06T23:09:16.113Z,77.90
2019-05-06T23:11:44.635Z,78.30
2019-05-06T23:14:27.603Z,78.70
2019-05-06T23:16:43.243Z,78.90
2019-05-06T23:19:11.686Z,79.00
2019-05-06T23:21:40.135Z,78.90
2019-05-06T23:24:08.581Z,79.20
2019-05-06T23:26:37.030Z,79.40
2019-05-06T23:29:05.463Z,79.60
2019-05-06T23:31:33.905Z,79.40
2019-05-06T23:34:05.073Z,79.40
2019-05-06T23:36:52.872Z,80.00
2019-05-06T23:39:59.604Z,80.20
2019-05-06T23:43:04.335Z,80.40
2019-05-06T23:46:09.052Z,80.40
2019-05-06T23:49:13.850Z,80.50
2019-05-06T23:52:18.706Z,80.40
2019-05-06T23:55:23.455Z,80.70
2019-05-06T23:57:52.628Z,81.30
